Time;durP1;ratioP1;P1;durP2;ratioP2;P2;SDS_P1;SDS_P2;PMS_P1;PMS_P2;Temp;Humidity;BMP_temperature;BMP_pressure;BME280_temperature;BME280_humidity;BME280_pressure;Samples;Min_cycle;Max_cycle;Signal;HPM_P1;HPM_P2
2022/06/24 00:00:55;;;;;;;4.82;2.47;;;;;;;;;;5077309;28;20519;-82
2022/06/24 00:03:22;;;;;;;4.30;2.40;;;;;;;;;;5089882;27;20323;-79
2022/06/24 00:05:50;;;;;;;5.65;2.50;;;;;;;;;;5081600;28;20212;-82
2022/06/24 00:08:17;;;;;;;5.72;2.50;;;;;;;;;;5096787;27;20232;-82
2022/06/24 00:10:44;;;;;;;7.47;2.55;;;;;;;;;;5086119;27;20333;-79
2022/06/24 00:13:11;;;;;;;4.15;2.22;;;;;;;;;;5087908;27;20224;-81
2022/06/24 00:15:39;;;;;;;7.15;2.45;;;;;;;;;;5071271;27;20467;-81
2022/06/24 00:18:16;;;;;;;6.35;2.45;;;;;;;;;;5072938;28;20201;-81
2022/06/24 00:20:45;;;;;;;4.82;2.40;;;;;;;;;;5100235;27;20200;-82
2022/06/24 00:23:13;;;;;;;3.22;2.00;;;;;;;;;;5090063;27;20259;-79
2022/06/24 00:25:41;;;;;;;4.80;2.42;;;;;;;;;;5099869;27;20262;-81
2022/06/24 00:28:09;;;;;;;4.60;2.58;;;;;;;;;;5096603;27;20680;-80
2022/06/24 00:30:37;;;;;;;5.07;2.45;;;;;;;;;;5097431;27;20197;-78
2022/06/24 00:33:20;;;;;;;7.55;2.17;;;;;;;;;;5089910;27;20697;-77
2022/06/24 00:35:49;;;;;;;5.22;2.40;;;;;;;;;;5094439;27;20199;-81
2022/06/24 00:38:23;;;;;;;7.22;2.63;;;;;;;;;;5075150;28;20259;-78
2022/06/24 00:41:11;;;;;;;8.88;2.05;;;;;;;;;;5080795;27;20249;-78
2022/06/24 00:43:40;;;;;;;6.20;2.45;;;;;;;;;;5104886;27;20704;-81
2022/06/24 00:46:25;;;;;;;6.55;2.20;;;;;;;;;;5092456;28;20866;-78
2022/06/24 00:48:54;;;;;;;4.65;2.10;;;;;;;;;;5098682;27;20208;-79
2022/06/24 00:51:22;;;;;;;4.68;2.47;;;;;;;;;;5081330;28;20269;-81
2022/06/24 00:53:53;;;;;;;7.25;2.45;;;;;;;;;;5095563;27;20285;-81
2022/06/24 00:56:23;;;;;;;5.72;2.63;;;;;;;;;;5081441;27;20862;-79
2022/06/24 00:58:51;;;;;;;6.15;2.72;;;;;;;;;;5090798;28;20212;-82
2022/06/24 01:01:25;;;;;;;5.22;2.42;;;;;;;;;;5078739;28;20209;-78
2022/06/24 01:03:54;;;;;;;3.30;1.85;;;;;;;;;;5077624;28;20235;-79
2022/06/24 01:06:21;;;;;;;5.25;2.13;;;;;;;;;;5091139;27;20760;-80
2022/06/24 01:08:49;;;;;;;5.95;2.28;;;;;;;;;;5091256;27;20733;-81
2022/06/24 01:11:23;;;;;;;5.70;2.50;;;;;;;;;;5093372;27;20226;-81
2022/06/24 01:13:57;;;;;;;5.13;2.00;;;;;;;;;;5080269;27;20618;-75
2022/06/24 01:16:25;;;;;;;6.93;2.33;;;;;;;;;;5084886;28;20207;-73
2022/06/24 01:18:54;;;;;;;5.75;2.30;;;;;;;;;;5077108;28;20197;-76
2022/06/24 01:21:36;;;;;;;3.60;2.10;;;;;;;;;;5078171;28;20261;-76
2022/06/24 01:24:04;;;;;;;4.72;1.98;;;;;;;;;;5069275;28;20232;-76
2022/06/24 01:26:31;;;;;;;4.40;2.08;;;;;;;;;;5079352;28;20255;-77
2022/06/24 01:29:03;;;;;;;5.28;2.13;;;;;;;;;;5076280;28;20628;-76
2022/06/24 01:31:30;;;;;;;3.78;2.08;;;;;;;;;;5078291;28;20308;-78
2022/06/24 01:33:57;;;;;;;4.90;1.90;;;;;;;;;;5074839;28;20229;-76
2022/06/24 01:36:24;;;;;;;5.22;2.05;;;;;;;;;;5068148;28;20213;-77
2022/06/24 01:38:53;;;;;;;6.47;2.20;;;;;;;;;;5073131;28;20204;-77
2022/06/24 01:41:20;;;;;;;5.50;2.20;;;;;;;;;;5073819;28;20256;-77
2022/06/24 01:43:48;;;;;;;2.83;1.98;;;;;;;;;;5083455;28;20233;-75
2022/06/24 01:46:15;;;;;;;5.05;2.17;;;;;;;;;;5079848;28;20210;-76
2022/06/24 01:48:42;;;;;;;5.38;2.05;;;;;;;;;;5080230;28;20262;-78
2022/06/24 01:51:11;;;;;;;6.25;2.33;;;;;;;;;;5076796;28;20259;-75
2022/06/24 01:53:39;;;;;;;4.20;2.03;;;;;;;;;;5078269;28;20629;-78
2022/06/24 01:56:06;;;;;;;2.72;1.70;;;;;;;;;;5075409;28;21152;-76
2022/06/24 01:58:33;;;;;;;6.80;2.95;;;;;;;;;;5090311;28;20288;-75
2022/06/24 02:01:01;;;;;;;3.92;2.20;;;;;;;;;;5078904;28;20252;-77
2022/06/24 02:03:29;;;;;;;4.47;2.20;;;;;;;;;;5074824;28;20206;-77
2022/06/24 02:05:59;;;;;;;5.18;2.00;;;;;;;;;;5081384;28;20227;-76
2022/06/24 02:08:26;;;;;;;4.28;2.25;;;;;;;;;;5078779;28;20328;-75
2022/06/24 02:13:39;;;;;;;3.92;2.20;;;;;;;;;;5079008;28;20308;-77
2022/06/24 02:16:07;;;;;;;4.03;2.25;;;;;;;;;;5074801;28;20240;-78
2022/06/24 02:18:34;;;;;;;4.95;1.95;;;;;;;;;;5077230;28;20196;-76
2022/06/24 02:21:01;;;;;;;5.53;2.50;;;;;;;;;;5079755;28;20247;-77
2022/06/24 02:23:30;;;;;;;4.38;2.22;;;;;;;;;;5067791;28;20276;-76
2022/06/24 02:25:57;;;;;;;4.72;1.95;;;;;;;;;;5063039;28;20300;-74
2022/06/24 02:28:25;;;;;;;4.90;2.28;;;;;;;;;;5060264;28;20335;-76
2022/06/24 02:30:53;;;;;;;4.78;2.20;;;;;;;;;;5059907;28;20245;-77
2022/06/24 02:33:21;;;;;;;3.85;2.15;;;;;;;;;;5066035;28;20737;-73
2022/06/24 02:35:48;;;;;;;5.20;1.98;;;;;;;;;;5066206;28;20201;-76
2022/06/24 02:38:15;;;;;;;5.35;2.20;;;;;;;;;;5058355;28;20285;-76
2022/06/24 02:40:45;;;;;;;5.47;2.10;;;;;;;;;;5056194;28;20318;-76
2022/06/24 02:43:15;;;;;;;6.25;2.42;;;;;;;;;;5074755;28;20296;-77
2022/06/24 02:45:43;;;;;;;7.15;2.20;;;;;;;;;;5057970;28;20304;-77
2022/06/24 02:48:12;;;;;;;6.07;2.40;;;;;;;;;;5066414;28;20214;-77
2022/06/24 02:50:50;;;;;;;5.60;2.30;;;;;;;;;;5064508;28;20281;-77
2022/06/24 02:53:19;;;;;;;5.63;1.90;;;;;;;;;;5067745;28;20616;-78
2022/06/24 02:55:48;;;;;;;6.45;2.13;;;;;;;;;;5063464;28;20738;-75
2022/06/24 02:58:16;;;;;;;4.95;2.08;;;;;;;;;;5058843;28;20285;-76
2022/06/24 03:00:43;;;;;;;5.30;2.22;;;;;;;;;;5064845;28;20312;-74
2022/06/24 03:03:17;;;;;;;6.78;2.10;;;;;;;;;;5059922;28;20271;-75
2022/06/24 03:05:45;;;;;;;4.18;1.85;;;;;;;;;;5062890;28;20298;-76
2022/06/24 03:08:14;;;;;;;5.53;1.70;;;;;;;;;;5063903;28;20205;-76
2022/06/24 03:10:41;;;;;;;5.60;2.13;;;;;;;;;;5059038;28;20756;-75
2022/06/24 03:13:09;;;;;;;3.90;1.85;;;;;;;;;;5063850;28;20670;-77
2022/06/24 03:15:36;;;;;;;5.55;2.15;;;;;;;;;;5063897;28;21224;-75
2022/06/24 03:18:04;;;;;;;3.20;1.80;;;;;;;;;;5067258;28;21197;-74
2022/06/24 03:20:32;;;;;;;4.82;2.00;;;;;;;;;;5064029;28;20261;-76
2022/06/24 03:22:59;;;;;;;6.43;2.20;;;;;;;;;;5066840;28;20241;-77
2022/06/24 03:25:27;;;;;;;4.43;1.75;;;;;;;;;;5061181;28;20217;-77
2022/06/24 03:27:54;;;;;;;4.07;1.80;;;;;;;;;;5060211;28;20208;-75
2022/06/24 03:30:21;;;;;;;4.70;1.50;;;;;;;;;;5068448;28;20279;-78
2022/06/24 03:32:48;;;;;;;4.82;1.67;;;;;;;;;;5064204;28;20321;-77
2022/06/24 03:35:16;;;;;;;4.07;1.67;;;;;;;;;;5069197;28;20201;-75
2022/06/24 03:37:44;;;;;;;3.25;1.80;;;;;;;;;;5062308;28;20336;-76
2022/06/24 03:40:12;;;;;;;5.00;2.08;;;;;;;;;;5058492;28;20638;-77
2022/06/24 03:42:39;;;;;;;4.28;1.50;;;;;;;;;;5056057;28;20677;-76
2022/06/24 03:45:09;;;;;;;4.53;1.73;;;;;;;;;;5053401;28;20414;-77
2022/06/24 03:47:36;;;;;;;3.67;1.45;;;;;;;;;;5066868;28;20225;-76
2022/06/24 03:50:03;;;;;;;5.70;2.08;;;;;;;;;;5064370;28;20292;-76
2022/06/24 03:52:30;;;;;;;3.90;1.80;;;;;;;;;;5057519;28;20644;-75
2022/06/24 03:54:58;;;;;;;3.35;1.80;;;;;;;;;;5061485;28;20542;-77
2022/06/24 03:57:26;;;;;;;2.15;1.40;;;;;;;;;;5055003;28;20233;-75
2022/06/24 03:59:53;;;;;;;4.38;1.60;;;;;;;;;;5052927;28;20225;-74
2022/06/24 04:02:21;;;;;;;3.92;2.10;;;;;;;;;;5059693;28;20197;-76
2022/06/24 04:04:48;;;;;;;4.50;1.90;;;;;;;;;;5060390;28;20231;-75
2022/06/24 04:07:15;;;;;;;3.90;1.85;;;;;;;;;;5063536;28;20308;-76
2022/06/24 04:09:43;;;;;;;4.88;1.75;;;;;;;;;;5055121;28;20740;-77
2022/06/24 04:12:10;;;;;;;6.07;1.90;;;;;;;;;;5062918;28;20279;-77
2022/06/24 04:17:24;;;;;;;5.40;1.88;;;;;;;;;;5059968;28;20238;-77
2022/06/24 04:19:52;;;;;;;4.07;1.70;;;;;;;;;;5059433;28;20235;-78
2022/06/24 04:22:20;;;;;;;4.00;1.77;;;;;;;;;;5062696;28;20205;-75
2022/06/24 04:24:48;;;;;;;6.03;2.05;;;;;;;;;;5055833;28;20205;-77
2022/06/24 04:27:15;;;;;;;4.38;1.73;;;;;;;;;;5054639;28;20201;-72
2022/06/24 04:29:42;;;;;;;4.47;1.73;;;;;;;;;;5066335;28;20332;-73
2022/06/24 04:32:10;;;;;;;5.32;2.00;;;;;;;;;;5072746;28;20276;-76
2022/06/24 04:34:38;;;;;;;5.75;2.00;;;;;;;;;;5058818;28;20725;-77
2022/06/24 04:37:08;;;;;;;5.05;1.70;;;;;;;;;;5055152;28;20666;-76
2022/06/24 04:39:36;;;;;;;4.68;1.70;;;;;;;;;;5055601;28;20225;-75
2022/06/24 04:42:03;;;;;;;5.93;1.83;;;;;;;;;;5060728;28;20275;-77
2022/06/24 04:44:30;;;;;;;3.38;1.98;;;;;;;;;;5056054;28;20675;-75
2022/06/24 04:46:58;;;;;;;5.22;2.00;;;;;;;;;;5058593;28;20292;-74
2022/06/24 04:49:25;;;;;;;5.38;2.30;;;;;;;;;;5054180;28;20216;-76
2022/06/24 04:51:52;;;;;;;3.88;2.03;;;;;;;;;;5066242;28;20274;-76
2022/06/24 04:54:19;;;;;;;4.97;2.03;;;;;;;;;;5065089;28;20783;-75
2022/06/24 04:56:46;;;;;;;4.82;2.35;;;;;;;;;;5058779;28;20205;-75
2022/06/24 04:59:14;;;;;;;4.82;1.95;;;;;;;;;;5063152;28;20249;-77
2022/06/24 05:01:41;;;;;;;5.38;2.13;;;;;;;;;;5060906;28;20739;-76
2022/06/24 05:04:08;;;;;;;6.28;3.70;;;;;;;;;;5075932;28;20337;-77
2022/06/24 05:06:36;;;;;;;5.38;2.20;;;;;;;;;;5060385;28;20217;-77
2022/06/24 05:09:03;;;;;;;5.35;2.40;;;;;;;;;;5048780;28;20213;-76
2022/06/24 05:11:30;;;;;;;3.88;2.35;;;;;;;;;;5054669;28;20232;-77
2022/06/24 05:13:57;;;;;;;2.90;2.30;;;;;;;;;;5054242;28;20217;-76
2022/06/24 05:16:24;;;;;;;5.40;2.40;;;;;;;;;;5041973;28;20234;-75
2022/06/24 05:19:08;;;;;;;5.28;2.50;;;;;;;;;;5050439;28;20281;-77
2022/06/24 05:21:35;;;;;;;4.78;2.40;;;;;;;;;;5058395;28;20588;-77
2022/06/24 05:24:03;;;;;;;5.15;2.67;;;;;;;;;;5050221;28;20324;-76
2022/06/24 05:26:30;;;;;;;6.20;2.65;;;;;;;;;;5064118;28;20283;-76
2022/06/24 05:28:57;;;;;;;6.03;2.70;;;;;;;;;;5050740;28;20281;-76
2022/06/24 05:31:25;;;;;;;4.22;2.55;;;;;;;;;;5056090;28;20226;-76
2022/06/24 05:33:52;;;;;;;5.60;2.72;;;;;;;;;;5042167;28;20249;-77
2022/06/24 05:36:20;;;;;;;4.13;2.55;;;;;;;;;;5069002;28;20296;-77
2022/06/24 05:38:47;;;;;;;5.78;2.53;;;;;;;;;;5071035;28;20243;-77
2022/06/24 05:41:14;;;;;;;5.07;2.25;;;;;;;;;;5069000;28;20313;-76
2022/06/24 05:43:41;;;;;;;5.80;2.20;;;;;;;;;;5066029;28;20205;-76
2022/06/24 05:46:09;;;;;;;4.32;2.10;;;;;;;;;;5067893;28;20232;-76
2022/06/24 05:48:37;;;;;;;3.70;1.90;;;;;;;;;;5067335;28;20582;-75
2022/06/24 05:51:08;;;;;;;5.03;1.77;;;;;;;;;;5068485;28;20083;-76
2022/06/24 05:56:21;;;;;;;4.03;1.90;;;;;;;;;;5071851;28;20244;-74
2022/06/24 05:58:49;;;;;;;3.72;2.00;;;;;;;;;;5077083;28;20233;-75
2022/06/24 06:01:16;;;;;;;5.38;1.95;;;;;;;;;;5075341;28;20255;-75
2022/06/24 06:03:44;;;;;;;4.95;1.85;;;;;;;;;;5068372;28;20340;-76
2022/06/24 06:06:11;;;;;;;3.47;1.63;;;;;;;;;;5070026;28;20296;-75
2022/06/24 06:08:39;;;;;;;3.72;1.92;;;;;;;;;;5072564;28;20704;-75
2022/06/24 06:11:15;;;;;;;4.60;1.80;;;;;;;;;;5067346;28;20212;-76
2022/06/24 06:13:43;;;;;;;5.40;1.90;;;;;;;;;;5068656;28;20287;-75
2022/06/24 06:16:11;;;;;;;6.00;2.03;;;;;;;;;;5070478;28;20248;-77
2022/06/24 06:18:38;;;;;;;5.28;2.00;;;;;;;;;;5059072;28;20205;-77
2022/06/24 06:21:07;;;;;;;3.92;1.90;;;;;;;;;;5074789;28;20240;-75
2022/06/24 06:23:35;;;;;;;3.42;2.00;;;;;;;;;;5074902;28;20242;-77
2022/06/24 06:26:03;;;;;;;5.63;2.20;;;;;;;;;;5078957;28;20270;-75
2022/06/24 06:28:30;;;;;;;4.38;2.20;;;;;;;;;;5060795;28;20244;-76
2022/06/24 06:30:58;;;;;;;7.15;2.30;;;;;;;;;;5067916;28;20252;-75
2022/06/24 06:33:25;;;;;;;7.63;2.70;;;;;;;;;;5066911;28;20256;-76
2022/06/24 06:36:01;;;;;;;5.82;2.10;;;;;;;;;;5066142;28;20198;-77
2022/06/24 06:38:28;;;;;;;6.07;2.28;;;;;;;;;;5066579;28;20227;-75
2022/06/24 06:40:55;;;;;;;7.10;2.25;;;;;;;;;;5074029;28;20311;-75
2022/06/24 06:43:22;;;;;;;6.93;2.60;;;;;;;;;;5073926;28;21359;-75
2022/06/24 06:45:49;;;;;;;3.03;2.30;;;;;;;;;;5068476;28;20307;-77
2022/06/24 06:48:17;;;;;;;8.95;2.75;;;;;;;;;;5069381;28;20290;-76
2022/06/24 06:50:44;;;;;;;5.28;2.25;;;;;;;;;;5068144;28;20651;-75
2022/06/24 06:53:11;;;;;;;4.25;2.53;;;;;;;;;;5074780;28;20208;-76
2022/06/24 06:55:38;;;;;;;6.63;2.70;;;;;;;;;;5070234;28;20312;-77
2022/06/24 06:58:11;;;;;;;5.80;2.70;;;;;;;;;;5076791;28;20200;-78
2022/06/24 07:00:38;;;;;;;7.00;3.05;;;;;;;;;;5072793;28;20309;-77
2022/06/24 07:03:06;;;;;;;7.03;2.78;;;;;;;;;;5078327;28;20200;-77
2022/06/24 07:05:33;;;;;;;3.85;2.38;;;;;;;;;;5073922;28;20873;-76
2022/06/24 07:08:00;;;;;;;5.07;2.60;;;;;;;;;;5065554;28;20210;-74
2022/06/24 07:10:27;;;;;;;4.78;2.40;;;;;;;;;;5068761;28;20313;-74
2022/06/24 07:12:54;;;;;;;7.03;2.30;;;;;;;;;;5064322;28;20274;-74
2022/06/24 07:15:22;;;;;;;6.20;2.13;;;;;;;;;;5096309;27;20296;-74
2022/06/24 07:17:49;;;;;;;5.47;2.55;;;;;;;;;;5068771;28;20205;-77
2022/06/24 07:20:16;;;;;;;5.85;2.60;;;;;;;;;;5068928;28;20244;-76
2022/06/24 07:22:44;;;;;;;6.80;2.45;;;;;;;;;;5070260;28;20292;-77
2022/06/24 07:25:11;;;;;;;5.75;2.30;;;;;;;;;;5066362;28;20306;-77
2022/06/24 07:27:38;;;;;;;5.32;1.90;;;;;;;;;;5068830;28;20276;-76
2022/06/24 07:30:06;;;;;;;4.95;2.08;;;;;;;;;;5063450;28;20216;-77
2022/06/24 07:32:33;;;;;;;5.97;2.60;;;;;;;;;;5078308;28;20182;-76
2022/06/24 07:35:01;;;;;;;5.85;2.40;;;;;;;;;;5085237;28;20259;-76
2022/06/24 07:37:28;;;;;;;4.03;2.10;;;;;;;;;;5077593;28;20202;-77
2022/06/24 07:39:55;;;;;;;4.40;2.10;;;;;;;;;;5067009;28;20240;-77
2022/06/24 07:42:22;;;;;;;5.65;2.05;;;;;;;;;;5069597;28;20285;-74
2022/06/24 07:44:50;;;;;;;5.43;2.45;;;;;;;;;;5060342;28;20291;-74
2022/06/24 07:47:17;;;;;;;3.42;1.80;;;;;;;;;;5071289;28;20287;-75
2022/06/24 07:49:44;;;;;;;5.20;1.70;;;;;;;;;;5067662;28;20661;-77
2022/06/24 07:52:12;;;;;;;7.65;2.30;;;;;;;;;;5062776;28;20253;-74
2022/06/24 07:54:39;;;;;;;4.50;1.80;;;;;;;;;;5068919;28;22074;-76
2022/06/24 07:57:06;;;;;;;5.30;2.20;;;;;;;;;;5069249;28;20213;-76
2022/06/24 07:59:35;;;;;;;3.08;1.80;;;;;;;;;;5074106;28;20354;-76
2022/06/24 08:02:04;;;;;;;2.78;1.67;;;;;;;;;;5069947;28;20252;-77
2022/06/24 08:04:31;;;;;;;5.05;1.80;;;;;;;;;;5074463;28;20202;-77
2022/06/24 08:06:59;;;;;;;3.50;2.38;;;;;;;;;;5065164;28;20630;-77
2022/06/24 08:09:32;;;;;;;6.18;2.30;;;;;;;;;;5069552;28;20265;-77
2022/06/24 08:12:00;;;;;;;4.88;2.10;;;;;;;;;;5067912;28;20328;-77
2022/06/24 08:14:27;;;;;;;5.25;2.00;;;;;;;;;;5068421;28;20233;-77
2022/06/24 08:16:55;;;;;;;6.45;1.95;;;;;;;;;;5067596;28;20658;-77
2022/06/24 08:19:22;;;;;;;5.45;1.85;;;;;;;;;;5086675;28;20693;-76
2022/06/24 08:21:50;;;;;;;2.88;1.80;;;;;;;;;;5067287;28;20314;-77
2022/06/24 08:24:17;;;;;;;4.88;1.83;;;;;;;;;;5070454;28;20672;-77
2022/06/24 08:26:44;;;;;;;5.55;2.03;;;;;;;;;;5072099;28;20252;-76
2022/06/24 08:29:12;;;;;;;5.32;2.30;;;;;;;;;;5061074;28;20282;-75
2022/06/24 08:31:39;;;;;;;8.40;2.20;;;;;;;;;;5058645;28;20264;-76
2022/06/24 08:34:06;;;;;;;5.00;1.83;;;;;;;;;;5070226;28;20232;-77
2022/06/24 08:36:33;;;;;;;4.10;1.80;;;;;;;;;;5050400;28;20288;-77
2022/06/24 08:39:01;;;;;;;5.28;1.95;;;;;;;;;;5049492;28;20288;-77
2022/06/24 08:41:28;;;;;;;5.03;1.90;;;;;;;;;;5065315;28;20300;-76
2022/06/24 08:43:56;;;;;;;2.72;1.63;;;;;;;;;;5071535;28;20210;-77
2022/06/24 08:46:25;;;;;;;1.95;1.55;;;;;;;;;;5068442;28;20218;-75
2022/06/24 08:48:58;;;;;;;3.00;1.90;;;;;;;;;;5065764;28;20224;-78
2022/06/24 08:51:27;;;;;;;3.15;1.90;;;;;;;;;;5050796;28;20222;-78
2022/06/24 08:54:00;;;;;;;2.63;1.42;;;;;;;;;;5070544;28;20312;-73
2022/06/24 08:56:48;;;;;;;1.80;1.55;;;;;;;;;;5083513;28;20212;-74
2022/06/24 08:59:15;;;;;;;6.13;3.67;;;;;;;;;;5077556;28;20242;-76
2022/06/24 09:01:42;;;;;;;4.75;1.80;;;;;;;;;;5072058;28;20268;-76
2022/06/24 09:04:10;;;;;;;3.92;1.63;;;;;;;;;;5063131;28;20201;-78
2022/06/24 09:06:38;;;;;;;3.28;1.50;;;;;;;;;;5062185;28;20255;-77
2022/06/24 09:09:06;;;;;;;5.10;1.70;;;;;;;;;;5064622;28;20233;-76
2022/06/24 09:11:38;;;;;;;1.88;1.20;;;;;;;;;;5061983;28;20293;-76
2022/06/24 09:14:05;;;;;;;2.67;1.75;;;;;;;;;;5060732;28;20304;-77
2022/06/24 09:16:35;;;;;;;3.20;1.60;;;;;;;;;;5071181;28;20288;-77
2022/06/24 09:19:06;;;;;;;3.72;1.67;;;;;;;;;;5065792;28;20205;-77
2022/06/24 09:21:41;;;;;;;4.80;1.63;;;;;;;;;;5051123;28;20229;-75
2022/06/24 09:24:09;;;;;;;3.33;1.38;;;;;;;;;;5040091;28;20260;-75
2022/06/24 09:26:39;;;;;;;3.25;1.92;;;;;;;;;;5054748;28;20237;-77
2022/06/24 09:29:07;;;;;;;4.35;1.88;;;;;;;;;;5064219;28;20271;-75
2022/06/24 09:31:34;;;;;;;2.60;1.48;;;;;;;;;;5056473;28;20249;-77
2022/06/24 09:34:09;;;;;;;4.65;2.00;;;;;;;;;;5070788;28;20278;-76
2022/06/24 09:36:37;;;;;;;4.38;1.67;;;;;;;;;;5053649;28;20860;-77
2022/06/24 09:39:09;;;;;;;2.83;1.80;;;;;;;;;;5053887;28;20627;-75
2022/06/24 09:41:48;;;;;;;3.55;2.03;;;;;;;;;;5058818;28;20225;-77
2022/06/24 09:44:16;;;;;;;4.25;1.80;;;;;;;;;;5055934;28;20915;-78
2022/06/24 09:46:44;;;;;;;3.65;1.85;;;;;;;;;;5068018;28;20288;-75
2022/06/24 09:49:12;;;;;;;2.75;1.73;;;;;;;;;;5055306;28;20210;-77
2022/06/24 09:51:41;;;;;;;7.22;1.90;;;;;;;;;;5076914;28;20712;-78
2022/06/24 09:54:08;;;;;;;5.28;1.90;;;;;;;;;;5046193;28;20309;-75
2022/06/24 09:56:36;;;;;;;4.97;1.70;;;;;;;;;;5058006;28;20669;-76
2022/06/24 10:01:50;;;;;;;3.33;1.48;;;;;;;;;;5063062;28;20221;-76
2022/06/24 10:04:18;;;;;;;3.58;2.00;;;;;;;;;;5060634;28;20304;-76
2022/06/24 10:06:49;;;;;;;2.45;1.55;;;;;;;;;;5065815;28;20315;-77
2022/06/24 10:09:25;;;;;;;4.18;2.28;;;;;;;;;;5059779;28;20292;-78
2022/06/24 10:11:55;;;;;;;4.32;1.77;;;;;;;;;;5056756;28;20782;-76
2022/06/24 10:14:24;;;;;;;4.38;2.50;;;;;;;;;;5049518;28;20228;-75
2022/06/24 10:16:51;;;;;;;8.32;4.63;;;;;;;;;;5053773;28;20214;-76
2022/06/24 10:19:19;;;;;;;7.05;2.10;;;;;;;;;;5060485;28;20211;-76
2022/06/24 10:21:50;;;;;;;4.63;2.83;;;;;;;;;;5054645;28;20245;-77
2022/06/24 10:24:18;;;;;;;5.53;2.30;;;;;;;;;;5054054;28;20241;-77
2022/06/24 10:26:46;;;;;;;2.47;1.30;;;;;;;;;;5048396;28;20297;-78
2022/06/24 10:29:14;;;;;;;8.93;1.80;;;;;;;;;;5053003;28;20733;-77
2022/06/24 10:31:44;;;;;;;4.18;1.50;;;;;;;;;;5056323;28;20275;-77
2022/06/24 10:34:13;;;;;;;2.65;1.77;;;;;;;;;;5062085;28;20567;-76
2022/06/24 10:36:40;;;;;;;2.53;1.45;;;;;;;;;;5054278;28;20209;-77
2022/06/24 10:39:10;;;;;;;3.60;1.70;;;;;;;;;;5052003;28;20301;-76
2022/06/24 10:41:38;;;;;;;2.42;1.65;;;;;;;;;;5044679;28;20230;-76
2022/06/24 10:44:24;;;;;;;2.75;1.80;;;;;;;;;;5041081;28;20309;-78
2022/06/24 10:47:06;;;;;;;2.10;1.50;;;;;;;;;;5047897;28;20288;-76
2022/06/24 10:49:54;;;;;;;3.83;2.25;;;;;;;;;;5047203;28;20288;-77
2022/06/24 10:52:38;;;;;;;2.85;1.70;;;;;;;;;;5033188;28;20285;-76
2022/06/24 10:55:21;;;;;;;3.72;1.80;;;;;;;;;;5038396;28;22352;-79
2022/06/24 10:57:49;;;;;;;5.28;2.00;;;;;;;;;;5049674;28;20212;-78
2022/06/24 11:00:21;;;;;;;3.40;1.80;;;;;;;;;;5046649;28;20221;-77
2022/06/24 11:02:57;;;;;;;4.63;2.00;;;;;;;;;;5045634;28;20202;-78
2022/06/24 11:05:24;;;;;;;2.92;2.22;;;;;;;;;;5052538;28;20197;-79
2022/06/24 11:07:51;;;;;;;4.82;1.85;;;;;;;;;;5048059;28;20214;-77
2022/06/24 11:10:23;;;;;;;4.65;1.70;;;;;;;;;;5063298;28;20278;-78
2022/06/24 11:12:54;;;;;;;4.35;1.52;;;;;;;;;;5062375;28;20241;-78
2022/06/24 11:15:48;;;;;;;2.10;1.60;;;;;;;;;;5049859;28;20754;-76
2022/06/24 11:18:17;;;;;;;4.15;1.80;;;;;;;;;;5076022;28;20238;-77
2022/06/24 11:20:59;;;;;;;3.85;1.63;;;;;;;;;;5053895;28;20428;-78
2022/06/24 11:23:28;;;;;;;3.13;1.38;;;;;;;;;;5053803;28;20305;-79
2022/06/24 11:26:14;;;;;;;3.30;1.80;;;;;;;;;;5053459;28;20217;-77
2022/06/24 11:28:42;;;;;;;6.75;1.60;;;;;;;;;;5059432;28;20205;-78
2022/06/24 11:31:18;;;;;;;5.75;1.98;;;;;;;;;;5061097;28;20253;-76
2022/06/24 11:33:49;;;;;;;2.78;1.42;;;;;;;;;;5061077;28;20237;-75
2022/06/24 11:36:19;;;;;;;3.58;1.30;;;;;;;;;;5060630;28;20302;-77
2022/06/24 11:38:52;;;;;;;2.85;1.80;;;;;;;;;;5058114;28;20209;-78
2022/06/24 11:41:26;;;;;;;1.75;1.48;;;;;;;;;;5063468;28;20352;-77
2022/06/24 11:44:14;;;;;;;4.47;1.90;;;;;;;;;;5052356;28;20217;-77
2022/06/24 11:46:48;;;;;;;2.88;1.50;;;;;;;;;;5061094;28;20204;-77
2022/06/24 11:49:15;;;;;;;2.42;1.42;;;;;;;;;;5058292;28;20293;-76
2022/06/24 11:51:45;;;;;;;3.50;1.60;;;;;;;;;;5060261;28;20144;-77
2022/06/24 11:54:13;;;;;;;4.15;1.48;;;;;;;;;;5059542;28;20776;-76
2022/06/24 11:56:40;;;;;;;2.08;1.55;;;;;;;;;;5062025;28;20752;-77
2022/06/24 11:59:09;;;;;;;5.72;1.55;;;;;;;;;;5059642;28;20817;-76
2022/06/24 12:01:38;;;;;;;2.85;1.52;;;;;;;;;;5067892;28;20222;-77
2022/06/24 12:04:08;;;;;;;3.40;1.70;;;;;;;;;;5058789;28;20208;-75
2022/06/24 12:06:37;;;;;;;1.90;1.42;;;;;;;;;;5060317;28;20534;-76
2022/06/24 12:09:04;;;;;;;2.75;1.50;;;;;;;;;;5054592;28;20197;-77
2022/06/24 12:11:36;;;;;;;2.70;1.60;;;;;;;;;;5055629;28;20788;-77
2022/06/24 12:14:05;;;;;;;1.85;1.35;;;;;;;;;;5065402;28;20224;-75
2022/06/24 12:17:08;;;;;;;1.48;1.33;;;;;;;;;;5051342;28;20226;-76
2022/06/24 12:19:40;;;;;;;2.72;1.60;;;;;;;;;;5019866;28;20193;-77
2022/06/24 12:22:09;;;;;;;3.45;1.70;;;;;;;;;;5057272;28;20292;-77
2022/06/24 12:24:37;;;;;;;4.72;1.88;;;;;;;;;;5062560;28;20735;-78
2022/06/24 12:27:04;;;;;;;3.42;1.77;;;;;;;;;;5066667;28;20266;-77
2022/06/24 12:29:33;;;;;;;4.13;1.75;;;;;;;;;;5056418;28;20613;-77
2022/06/24 12:32:01;;;;;;;3.78;1.73;;;;;;;;;;5059379;28;20225;-77
2022/06/24 12:34:30;;;;;;;3.20;1.52;;;;;;;;;;5061071;28;20194;-77
2022/06/24 12:37:01;;;;;;;4.55;1.88;;;;;;;;;;5064439;28;20210;-77
2022/06/24 12:39:29;;;;;;;3.65;1.98;;;;;;;;;;5066110;28;20223;-76
2022/06/24 12:41:57;;;;;;;4.20;3.63;;;;;;;;;;5064041;28;20218;-77
2022/06/24 12:44:28;;;;;;;11.48;5.20;;;;;;;;;;5059034;28;20308;-77
2022/06/24 12:52:28;;;;;;;6.32;3.65;;;;;;;;;;5056943;28;20236;-76
2022/06/24 12:54:56;;;;;;;5.95;2.92;;;;;;;;;;5057096;28;20267;-75
2022/06/24 12:57:24;;;;;;;2.40;1.40;;;;;;;;;;5059239;28;20332;-77
2022/06/24 12:59:51;;;;;;;2.22;1.38;;;;;;;;;;5057820;28;20197;-77
2022/06/24 13:02:21;;;;;;;2.22;1.25;;;;;;;;;;5070592;28;20255;-75
2022/06/24 13:04:49;;;;;;;2.33;1.55;;;;;;;;;;5054873;28;20204;-74
2022/06/24 13:07:21;;;;;;;1.70;1.13;;;;;;;;;;5056288;28;20240;-76
2022/06/24 13:09:49;;;;;;;3.67;1.63;;;;;;;;;;5062467;28;20237;-75
2022/06/24 13:12:16;;;;;;;2.28;1.50;;;;;;;;;;5058450;28;20237;-77
2022/06/24 13:14:43;;;;;;;3.58;1.75;;;;;;;;;;5059796;28;20240;-76
2022/06/24 13:17:10;;;;;;;5.10;1.80;;;;;;;;;;5052778;28;20288;-77
2022/06/24 13:19:38;;;;;;;1.27;1.10;;;;;;;;;;5061085;28;20232;-75
2022/06/24 13:22:05;;;;;;;1.73;1.10;;;;;;;;;;5052062;28;20743;-75
2022/06/24 13:24:34;;;;;;;2.13;1.38;;;;;;;;;;5055542;28;20732;-75
2022/06/24 13:27:03;;;;;;;1.40;1.30;;;;;;;;;;5055237;28;20232;-75
2022/06/24 13:29:31;;;;;;;2.28;1.20;;;;;;;;;;5074913;28;20743;-78
2022/06/24 13:32:01;;;;;;;1.30;1.17;;;;;;;;;;5055905;28;20220;-75
2022/06/24 13:34:29;;;;;;;1.95;1.10;;;;;;;;;;5046047;28;20234;-75
2022/06/24 13:36:56;;;;;;;2.67;1.20;;;;;;;;;;5054714;28;20356;-76
2022/06/24 13:39:23;;;;;;;1.10;1.10;;;;;;;;;;5056521;28;20205;-76
2022/06/24 13:41:51;;;;;;;20.05;13.00;;;;;;;;;;5060605;28;20720;-76
2022/06/24 13:44:18;;;;;;;8.60;4.75;;;;;;;;;;5075122;28;20197;-75
2022/06/24 13:46:45;;;;;;;2.38;2.08;;;;;;;;;;5061724;28;20303;-75
2022/06/24 13:49:16;;;;;;;2.40;2.20;;;;;;;;;;5055132;28;20216;-76
2022/06/24 13:51:43;;;;;;;1.88;1.70;;;;;;;;;;5050742;28;21481;-76
2022/06/24 13:54:10;;;;;;;2.20;1.98;;;;;;;;;;5056279;28;20233;-75
2022/06/24 13:56:37;;;;;;;2.60;2.10;;;;;;;;;;5052105;28;20221;-77
2022/06/24 13:59:05;;;;;;;4.53;2.70;;;;;;;;;;5052543;28;20327;-76
2022/06/24 14:01:32;;;;;;;4.03;2.20;;;;;;;;;;5053549;28;20241;-76
2022/06/24 14:04:00;;;;;;;3.53;2.28;;;;;;;;;;5049848;28;20206;-74
2022/06/24 14:06:27;;;;;;;3.20;1.77;;;;;;;;;;5051008;28;20333;-77
2022/06/24 14:08:56;;;;;;;2.75;1.73;;;;;;;;;;5040811;28;20628;-76
2022/06/24 14:11:23;;;;;;;4.10;2.00;;;;;;;;;;5062640;28;20253;-77
2022/06/24 14:13:50;;;;;;;2.63;1.30;;;;;;;;;;5046218;28;20720;-76
2022/06/24 14:16:17;;;;;;;2.03;1.63;;;;;;;;;;5060939;28;20762;-77
2022/06/24 14:19:06;;;;;;;2.33;1.35;;;;;;;;;;5068058;28;20219;-77
2022/06/24 14:21:35;;;;;;;2.58;1.35;;;;;;;;;;5062883;28;20362;-76
2022/06/24 14:26:47;;;;;;;2.55;1.70;;;;;;;;;;5062445;28;20205;-79
2022/06/24 14:29:15;;;;;;;2.17;1.50;;;;;;;;;;5067279;28;20297;-78
2022/06/24 14:31:42;;;;;;;3.35;1.55;;;;;;;;;;5070548;28;20263;-76
2022/06/24 14:34:09;;;;;;;2.42;1.45;;;;;;;;;;5072779;28;20215;-79
2022/06/24 14:36:36;;;;;;;1.15;1.05;;;;;;;;;;5063471;28;20225;-76
2022/06/24 14:41:50;;;;;;;1.42;1.33;;;;;;;;;;5065788;28;20244;-78
2022/06/24 14:44:17;;;;;;;2.25;1.58;;;;;;;;;;5057258;28;20198;-79
2022/06/24 14:46:45;;;;;;;3.58;1.40;;;;;;;;;;5067413;28;20252;-78
2022/06/24 14:49:12;;;;;;;1.42;1.33;;;;;;;;;;5058779;28;20208;-78
2022/06/24 14:51:55;;;;;;;1.38;1.23;;;;;;;;;;5066260;28;20221;-75
2022/06/24 14:54:23;;;;;;;1.48;1.38;;;;;;;;;;5084391;28;21196;-76
2022/06/24 14:56:50;;;;;;;1.70;1.60;;;;;;;;;;5067709;28;20221;-76
2022/06/24 14:59:17;;;;;;;3.45;1.40;;;;;;;;;;5061522;28;20229;-78
2022/06/24 15:01:44;;;;;;;1.85;1.50;;;;;;;;;;5048946;28;20313;-78
2022/06/24 15:04:12;;;;;;;1.50;1.40;;;;;;;;;;5056026;28;20508;-76
2022/06/24 15:06:39;;;;;;;2.60;1.70;;;;;;;;;;5053500;28;20213;-77
2022/06/24 15:09:06;;;;;;;3.90;2.00;;;;;;;;;;5066619;28;20255;-76
2022/06/24 15:11:33;;;;;;;4.75;3.40;;;;;;;;;;5098356;27;20274;-76
2022/06/24 15:14:09;;;;;;;3.00;1.83;;;;;;;;;;5057734;28;20201;-79
2022/06/24 15:16:37;;;;;;;1.60;1.50;;;;;;;;;;5060625;28;20240;-77